sensor_id;sensor_type;location;lat;lon;timestamp;pressure;altitude;pressure_sealevel;temperature;humidity
75460;BME280;64039;53.060;9.342;2023-11-19T00:01:53;100434.44;;;5.21;100.00
75460;BME280;64039;53.060;9.342;2023-11-19T00:04:18;100413.34;;;5.33;100.00
75460;BME280;64039;53.060;9.342;2023-11-19T00:06:44;100412.47;;;5.32;100.00
75460;BME280;64039;53.060;9.342;2023-11-19T00:09:09;100416.13;;;5.39;100.00
75460;BME280;64039;53.060;9.342;2023-11-19T00:11:35;100412.38;;;5.29;100.00
75460;BME280;64039;53.060;9.342;2023-11-19T00:14:01;100397.53;;;5.24;100.00
75460;BME280;64039;53.060;9.342;2023-11-19T00:16:26;100389.13;;;5.29;100.00
75460;BME280;64039;53.060;9.342;2023-11-19T00:18:53;100391.94;;;5.35;100.00
75460;BME280;64039;53.060;9.342;2023-11-19T00:21:18;100389.13;;;5.29;100.00
75460;BME280;64039;53.060;9.342;2023-11-19T00:23:44;100374.59;;;5.31;100.00
75460;BME280;64039;53.060;9.342;2023-11-19T00:26:09;100366.63;;;5.25;100.00
75460;BME280;64039;53.060;9.342;2023-11-19T00:28:35;100365.25;;;5.35;100.00
75460;BME280;64039;53.060;9.342;2023-11-19T00:31:04;100357.00;;;5.45;100.00
75460;BME280;64039;53.060;9.342;2023-11-19T00:33:29;100346.88;;;5.51;100.00
75460;BME280;64039;53.060;9.342;2023-11-19T00:35:56;100338.22;;;5.49;100.00
75460;BME280;64039;53.060;9.342;2023-11-19T00:38:22;100337.19;;;5.44;100.00
75460;BME280;64039;53.060;9.342;2023-11-19T00:40:47;100331.31;;;5.50;100.00
75460;BME280;64039;53.060;9.342;2023-11-19T00:43:13;100346.97;;;5.55;100.00
75460;BME280;64039;53.060;9.342;2023-11-19T00:45:38;100324.00;;;5.62;100.00
75460;BME280;64039;53.060;9.342;2023-11-19T00:48:04;100303.16;;;5.56;100.00
75460;BME280;64039;53.060;9.342;2023-11-19T00:50:29;100314.50;;;5.61;100.00
75460;BME280;64039;53.060;9.342;2023-11-19T00:52:56;100319.66;;;5.61;100.00
75460;BME280;64039;53.060;9.342;2023-11-19T00:55:21;100326.91;;;5.72;100.00
75460;BME280;64039;53.060;9.342;2023-11-19T00:57:47;100321.63;;;5.69;100.00
75460;BME280;64039;53.060;9.342;2023-11-19T01:00:13;100306.13;;;5.69;100.00
75460;BME280;64039;53.060;9.342;2023-11-19T01:02:49;100303.53;;;5.69;100.00
75460;BME280;64039;53.060;9.342;2023-11-19T01:05:15;100286.28;;;5.67;100.00
75460;BME280;64039;53.060;9.342;2023-11-19T01:07:40;100263.13;;;5.69;100.00
75460;BME280;64039;53.060;9.342;2023-11-19T01:10:06;100265.13;;;5.78;100.00
75460;BME280;64039;53.060;9.342;2023-11-19T01:12:33;100262.56;;;5.79;100.00
75460;BME280;64039;53.060;9.342;2023-11-19T01:14:59;100248.84;;;5.80;100.00
75460;BME280;64039;53.060;9.342;2023-11-19T01:17:24;100279.09;;;5.85;100.00
75460;BME280;64039;53.060;9.342;2023-11-19T01:19:50;100254.00;;;5.80;100.00
75460;BME280;64039;53.060;9.342;2023-11-19T01:22:16;100261.00;;;5.83;100.00
75460;BME280;64039;53.060;9.342;2023-11-19T01:24:41;100257.13;;;5.70;100.00
75460;BME280;64039;53.060;9.342;2023-11-19T01:27:07;100242.75;;;5.78;100.00
75460;BME280;64039;53.060;9.342;2023-11-19T01:29:33;100247.19;;;5.82;100.00
75460;BME280;64039;53.060;9.342;2023-11-19T01:31:59;100247.56;;;5.95;100.00
75460;BME280;64039;53.060;9.342;2023-11-19T01:34:24;100240.69;;;5.95;100.00
75460;BME280;64039;53.060;9.342;2023-11-19T01:36:50;100240.59;;;5.92;100.00
75460;BME280;64039;53.060;9.342;2023-11-19T01:39:16;100233.84;;;5.96;100.00
75460;BME280;64039;53.060;9.342;2023-11-19T01:41:41;100233.72;;;5.93;100.00
75460;BME280;64039;53.060;9.342;2023-11-19T01:44:09;100230.34;;;5.95;100.00
75460;BME280;64039;53.060;9.342;2023-11-19T01:46:38;100230.34;;;5.95;100.00
75460;BME280;64039;53.060;9.342;2023-11-19T01:49:05;100230.66;;;6.05;100.00
75460;BME280;64039;53.060;9.342;2023-11-19T01:51:31;100218.44;;;5.99;100.00
75460;BME280;64039;53.060;9.342;2023-11-19T01:53:57;100219.53;;;6.07;100.00
75460;BME280;64039;53.060;9.342;2023-11-19T01:56:24;100223.91;;;6.10;100.00
75460;BME280;64039;53.060;9.342;2023-11-19T01:58:51;100218.09;;;6.17;100.00
75460;BME280;64039;53.060;9.342;2023-11-19T02:01:19;100188.94;;;6.21;100.00
75460;BME280;64039;53.060;9.342;2023-11-19T02:03:45;100169.28;;;6.26;100.00
75460;BME280;64039;53.060;9.342;2023-11-19T02:06:12;100162.59;;;6.35;100.00
75460;BME280;64039;53.060;9.342;2023-11-19T02:08:39;100173.97;;;6.40;100.00
75460;BME280;64039;53.060;9.342;2023-11-19T02:11:05;100169.63;;;6.39;100.00
75460;BME280;64039;53.060;9.342;2023-11-19T02:13:32;100168.03;;;6.44;100.00
75460;BME280;64039;53.060;9.342;2023-11-19T02:15:58;100164.78;;;6.51;100.00
75460;BME280;64039;53.060;9.342;2023-11-19T02:18:27;100161.34;;;6.52;100.00
75460;BME280;64039;53.060;9.342;2023-11-19T02:20:56;100161.53;;;6.58;100.00
75460;BME280;64039;53.060;9.342;2023-11-19T02:23:22;100156.56;;;6.66;100.00
75460;BME280;64039;53.060;9.342;2023-11-19T02:28:50;100151.53;;;6.72;100.00
75460;BME280;64039;53.060;9.342;2023-11-19T02:31:15;100140.44;;;6.76;100.00
75460;BME280;64039;53.060;9.342;2023-11-19T02:33:41;100136.97;;;6.76;100.00
75460;BME280;64039;53.060;9.342;2023-11-19T02:36:07;100134.47;;;6.79;100.00
75460;BME280;64039;53.060;9.342;2023-11-19T02:38:34;100134.56;;;6.82;100.00
75460;BME280;64039;53.060;9.342;2023-11-19T02:41:02;100125.91;;;6.82;100.00
75460;BME280;64039;53.060;9.342;2023-11-19T02:43:30;100122.81;;;6.95;100.00
75460;BME280;64039;53.060;9.342;2023-11-19T02:46:00;100123.69;;;6.96;100.00
75460;BME280;64039;53.060;9.342;2023-11-19T02:48:26;100129.88;;;7.02;100.00
75460;BME280;64039;53.060;9.342;2023-11-19T02:50:51;100113.66;;;7.10;100.00
75460;BME280;64039;53.060;9.342;2023-11-19T02:53:17;100111.19;;;7.14;100.00
75460;BME280;64039;53.060;9.342;2023-11-19T02:55:43;100114.50;;;7.08;100.00
75460;BME280;64039;53.060;9.342;2023-11-19T02:58:14;100103.44;;;7.14;100.00
75460;BME280;64039;53.060;9.342;2023-11-19T03:00:45;100112.03;;;7.13;100.00
75460;BME280;64039;53.060;9.342;2023-11-19T03:03:19;100099.13;;;7.15;100.00
75460;BME280;64039;53.060;9.342;2023-11-19T03:05:52;100098.34;;;7.19;100.00
75460;BME280;64039;53.060;9.342;2023-11-19T03:08:17;100077.63;;;7.17;100.00
75460;BME280;64039;53.060;9.342;2023-11-19T03:10:43;100076.75;;;7.17;100.00
75460;BME280;64039;53.060;9.342;2023-11-19T03:13:13;100069.88;;;7.17;100.00
75460;BME280;64039;53.060;9.342;2023-11-19T03:15:42;100066.50;;;7.21;100.00
75460;BME280;64039;53.060;9.342;2023-11-19T03:18:08;100068.44;;;7.30;100.00
75460;BME280;64039;53.060;9.342;2023-11-19T03:20:33;100059.00;;;7.34;100.00
75460;BME280;64039;53.060;9.342;2023-11-19T03:22:59;100056.31;;;7.29;100.00
75460;BME280;64039;53.060;9.342;2023-11-19T03:25:25;100062.56;;;7.39;100.00
75460;BME280;64039;53.060;9.342;2023-11-19T03:28:02;100061.72;;;7.38;100.00
75460;BME280;64039;53.060;9.342;2023-11-19T03:30:29;100061.19;;;7.55;100.00
75460;BME280;64039;53.060;9.342;2023-11-19T03:32:55;100059.53;;;7.59;100.00
75460;BME280;64039;53.060;9.342;2023-11-19T03:35:21;100049.41;;;7.71;100.00
75460;BME280;64039;53.060;9.342;2023-11-19T03:37:47;100045.91;;;7.69;100.00
75460;BME280;64039;53.060;9.342;2023-11-19T03:40:12;100046.16;;;7.80;100.00
75460;BME280;64039;53.060;9.342;2023-11-19T03:42:38;100050.56;;;7.85;100.00
75460;BME280;64039;53.060;9.342;2023-11-19T03:45:06;100054.16;;;7.92;100.00
75460;BME280;64039;53.060;9.342;2023-11-19T03:47:36;100053.41;;;7.98;100.00
75460;BME280;64039;53.060;9.342;2023-11-19T03:50:02;100063.94;;;8.06;100.00
75460;BME280;64039;53.060;9.342;2023-11-19T03:52:28;100064.81;;;8.06;100.00
75460;BME280;64039;53.060;9.342;2023-11-19T03:54:57;100060.84;;;8.25;100.00
75460;BME280;64039;53.060;9.342;2023-11-19T03:57:23;100049.78;;;8.36;100.00
75460;BME280;64039;53.060;9.342;2023-11-19T03:59:49;100048.06;;;8.36;100.00
75460;BME280;64039;53.060;9.342;2023-11-19T04:02:15;100036.13;;;8.46;100.00
75460;BME280;64039;53.060;9.342;2023-11-19T04:04:40;100040.63;;;8.53;100.00
75460;BME280;64039;53.060;9.342;2023-11-19T04:07:06;100015.63;;;8.58;100.00
75460;BME280;64039;53.060;9.342;2023-11-19T04:09:31;100030.34;;;8.61;100.00
75460;BME280;64039;53.060;9.342;2023-11-19T04:11:58;100029.63;;;8.68;100.00
75460;BME280;64039;53.060;9.342;2023-11-19T04:14:24;100022.00;;;8.79;100.00
75460;BME280;64039;53.060;9.342;2023-11-19T04:16:50;100033.41;;;8.90;100.00
75460;BME280;64039;53.060;9.342;2023-11-19T04:19:16;100032.56;;;8.90;100.00
75460;BME280;64039;53.060;9.342;2023-11-19T04:21:42;100031.00;;;9.03;100.00
75460;BME280;64039;53.060;9.342;2023-11-19T04:24:09;100031.91;;;9.05;100.00
75460;BME280;64039;53.060;9.342;2023-11-19T04:26:40;100019.06;;;9.14;100.00
75460;BME280;64039;53.060;9.342;2023-11-19T04:29:14;100044.28;;;9.23;100.00
75460;BME280;64039;53.060;9.342;2023-11-19T04:31:40;100033.16;;;9.32;100.00
75460;BME280;64039;53.060;9.342;2023-11-19T04:34:06;100033.19;;;9.33;100.00
75460;BME280;64039;53.060;9.342;2023-11-19T04:36:33;100041.00;;;9.36;100.00
75460;BME280;64039;53.060;9.342;2023-11-19T04:38:59;100034.03;;;9.34;100.00
75460;BME280;64039;53.060;9.342;2023-11-19T04:41:25;100024.59;;;9.39;100.00
75460;BME280;64039;53.060;9.342;2023-11-19T04:43:56;100036.75;;;9.40;100.00
75460;BME280;64039;53.060;9.342;2023-11-19T04:46:21;100035.06;;;9.45;100.00
75460;BME280;64039;53.060;9.342;2023-11-19T04:48:49;100022.16;;;9.51;100.00
75460;BME280;64039;53.060;9.342;2023-11-19T04:51:15;100012.59;;;9.49;100.00
75460;BME280;64039;53.060;9.342;2023-11-19T04:53:40;100009.22;;;9.54;100.00
75460;BME280;64039;53.060;9.342;2023-11-19T04:56:10;100008.31;;;9.54;100.00
75460;BME280;64039;53.060;9.342;2023-11-19T04:58:36;100010.09;;;9.56;100.00
75460;BME280;64039;53.060;9.342;2023-11-19T05:01:05;100013.63;;;9.60;100.00
75460;BME280;64039;53.060;9.342;2023-11-19T05:03:31;100009.34;;;9.65;100.00
75460;BME280;64039;53.060;9.342;2023-11-19T05:05:58;100011.03;;;9.62;100.00
75460;BME280;64039;53.060;9.342;2023-11-19T05:08:23;100011.03;;;9.62;100.00
75460;BME280;64039;53.060;9.342;2023-11-19T05:10:49;100010.25;;;9.70;100.00
75460;BME280;64039;53.060;9.342;2023-11-19T05:13:14;100004.25;;;9.74;100.00
75460;BME280;64039;53.060;9.342;2023-11-19T05:15:40;100001.59;;;9.70;100.00
75460;BME280;64039;53.060;9.342;2023-11-19T05:18:06;99998.16;;;9.72;100.00
75460;BME280;64039;53.060;9.342;2023-11-19T05:20:31;99994.75;;;9.78;100.00
75460;BME280;64039;53.060;9.342;2023-11-19T05:22:57;99991.31;;;9.81;100.00
75460;BME280;64039;53.060;9.342;2023-11-19T05:25:24;99995.63;;;9.79;100.00
75460;BME280;64039;53.060;9.342;2023-11-19T05:27:50;99996.56;;;9.84;100.00
75460;BME280;64039;53.060;9.342;2023-11-19T05:30:15;99993.00;;;9.79;100.00
75460;BME280;64039;53.060;9.342;2023-11-19T05:32:41;99987.06;;;9.86;100.00
75460;BME280;64039;53.060;9.342;2023-11-19T05:35:07;99994.00;;;9.88;100.00
75460;BME280;64039;53.060;9.342;2023-11-19T05:37:33;100006.09;;;9.86;100.00
75460;BME280;64039;53.060;9.342;2023-11-19T05:40:00;100000.94;;;9.89;100.00
75460;BME280;64039;53.060;9.342;2023-11-19T05:42:28;100008.75;;;9.93;100.00
75460;BME280;64039;53.060;9.342;2023-11-19T05:44:53;100010.56;;;10.00;100.00
75460;BME280;64039;53.060;9.342;2023-11-19T05:47:19;100007.06;;;9.96;100.00
75460;BME280;64039;53.060;9.342;2023-11-19T05:49:44;100006.19;;;9.94;100.00
75460;BME280;64039;53.060;9.342;2023-11-19T05:52:10;100003.63;;;9.96;100.00
75460;BME280;64039;53.060;9.342;2023-11-19T05:54:38;100011.41;;;9.96;100.00
75460;BME280;64039;53.060;9.342;2023-11-19T05:57:06;100010.56;;;9.97;100.00
75460;BME280;64039;53.060;9.342;2023-11-19T05:59:35;100014.91;;;9.99;100.00
75460;BME280;64039;53.060;9.342;2023-11-19T06:02:01;100016.66;;;9.99;100.00
75460;BME280;64039;53.060;9.342;2023-11-19T06:04:27;100009.72;;;10.01;100.00
75460;BME280;64039;53.060;9.342;2023-11-19T06:06:53;100009.75;;;10.02;100.00
75460;BME280;64039;53.060;9.342;2023-11-19T06:09:20;100012.34;;;10.02;100.00
75460;BME280;64039;53.060;9.342;2023-11-19T06:11:46;100008.06;;;10.09;100.00
75460;BME280;64039;53.060;9.342;2023-11-19T06:14:12;100024.47;;;10.03;100.00
75460;BME280;64039;53.060;9.342;2023-11-19T06:16:37;100019.31;;;10.08;100.00
75460;BME280;64039;53.060;9.342;2023-11-19T06:19:05;100012.41;;;10.07;100.00
75460;BME280;64039;53.060;9.342;2023-11-19T06:21:30;100016.78;;;10.13;100.00
75460;BME280;64039;53.060;9.342;2023-11-19T06:23:56;100019.38;;;10.13;100.00
75460;BME280;64039;53.060;9.342;2023-11-19T06:26:21;100021.16;;;10.17;100.00
75460;BME280;64039;53.060;9.342;2023-11-19T06:28:47;100022.91;;;10.18;100.00
75460;BME280;64039;53.060;9.342;2023-11-19T06:31:13;100020.28;;;10.16;100.00
75460;BME280;64039;53.060;9.342;2023-11-19T06:33:41;100017.72;;;10.19;100.00
75460;BME280;64039;53.060;9.342;2023-11-19T06:36:07;100015.09;;;10.19;100.00
75460;BME280;64039;53.060;9.342;2023-11-19T06:38:34;100026.41;;;10.21;100.00
75460;BME280;64039;53.060;9.342;2023-11-19T06:41:01;100021.16;;;10.17;100.00
75460;BME280;64039;53.060;9.342;2023-11-19T06:43:27;100015.06;;;10.15;100.00
75460;BME280;64039;53.060;9.342;2023-11-19T06:45:54;100019.41;;;10.17;100.00
75460;BME280;64039;53.060;9.342;2023-11-19T06:48:19;100016.88;;;10.22;100.00
75460;BME280;64039;53.060;9.342;2023-11-19T06:50:45;100026.41;;;10.25;100.00
75460;BME280;64039;53.060;9.342;2023-11-19T06:53:10;100020.31;;;10.21;100.00
75460;BME280;64039;53.060;9.342;2023-11-19T06:55:36;100028.22;;;10.29;100.00
75460;BME280;64039;53.060;9.342;2023-11-19T06:58:01;100033.41;;;10.29;100.00
75460;BME280;64039;53.060;9.342;2023-11-19T07:00:30;100031.66;;;10.28;100.00
75460;BME280;64039;53.060;9.342;2023-11-19T07:02:59;100025.59;;;10.27;100.00
75460;BME280;64039;53.060;9.342;2023-11-19T07:05:24;100030.81;;;10.29;100.00
75460;BME280;64039;53.060;9.342;2023-11-19T07:07:50;100032.56;;;10.31;100.00
75460;BME280;64039;53.060;9.342;2023-11-19T07:10:15;100033.47;;;10.33;100.00
75460;BME280;64039;53.060;9.342;2023-11-19T07:12:41;100039.56;;;10.35;100.00
75460;BME280;64039;53.060;9.342;2023-11-19T07:15:07;100041.25;;;10.32;100.00
75460;BME280;64039;53.060;9.342;2023-11-19T07:17:34;100035.16;;;10.31;100.00
75460;BME280;64039;53.060;9.342;2023-11-19T07:20:00;100037.75;;;10.33;100.00
75460;BME280;64039;53.060;9.342;2023-11-19T07:22:26;100034.31;;;10.32;100.00
75460;BME280;64039;53.060;9.342;2023-11-19T07:24:51;100045.59;;;10.34;100.00
75460;BME280;64039;53.060;9.342;2023-11-19T07:27:18;100035.22;;;10.36;100.00
75460;BME280;64039;53.060;9.342;2023-11-19T07:29:44;100035.28;;;10.41;100.00
75460;BME280;64039;53.060;9.342;2023-11-19T07:32:10;100037.88;;;10.41;100.00
75460;BME280;64039;53.060;9.342;2023-11-19T07:34:36;100031.84;;;10.43;100.00
75460;BME280;64039;53.060;9.342;2023-11-19T07:37:01;100033.56;;;10.43;100.00
75460;BME280;64039;53.060;9.342;2023-11-19T07:39:28;100031.88;;;10.48;100.00
75460;BME280;64039;53.060;9.342;2023-11-19T07:41:54;100041.44;;;10.47;100.00
75460;BME280;64039;53.060;9.342;2023-11-19T07:44:20;100050.13;;;10.52;100.00
75460;BME280;64039;53.060;9.342;2023-11-19T07:46:46;100042.38;;;10.57;100.00
75460;BME280;64039;53.060;9.342;2023-11-19T07:49:13;100041.47;;;10.52;100.00
75460;BME280;64039;53.060;9.342;2023-11-19T07:51:39;100038.88;;;10.53;100.00
75460;BME280;64039;53.060;9.342;2023-11-19T07:54:04;100046.72;;;10.57;100.00
75460;BME280;64039;53.060;9.342;2023-11-19T07:56:30;100049.28;;;10.55;100.00
75460;BME280;64039;53.060;9.342;2023-11-19T07:58:55;100047.53;;;10.54;100.00
75460;BME280;64039;53.060;9.342;2023-11-19T08:01:21;100064.91;;;10.55;100.00
75460;BME280;64039;53.060;9.342;2023-11-19T08:03:48;100053.63;;;10.56;100.00
75460;BME280;64039;53.060;9.342;2023-11-19T08:06:14;100060.59;;;10.56;100.00
75460;BME280;64039;53.060;9.342;2023-11-19T08:08:39;100061.44;;;10.53;100.00
75460;BME280;64039;53.060;9.342;2023-11-19T08:11:05;100064.00;;;10.51;100.00
75460;BME280;64039;53.060;9.342;2023-11-19T08:13:31;100067.50;;;10.55;100.00
75460;BME280;64039;53.060;9.342;2023-11-19T08:15:57;100065.75;;;10.51;100.00
75460;BME280;64039;53.060;9.342;2023-11-19T08:18:24;100065.69;;;10.45;100.00
75460;BME280;64039;53.060;9.342;2023-11-19T08:20:49;100076.09;;;10.46;100.00
75460;BME280;64039;53.060;9.342;2023-11-19T08:23:18;100077.75;;;10.40;100.00
75460;BME280;64039;53.060;9.342;2023-11-19T08:25:43;100071.75;;;10.47;100.00
75460;BME280;64039;53.060;9.342;2023-11-19T08:28:09;100077.81;;;10.46;100.00
75460;BME280;64039;53.060;9.342;2023-11-19T08:30:35;100081.34;;;10.51;100.00
75460;BME280;64039;53.060;9.342;2023-11-19T08:33:00;100081.38;;;10.54;100.00
75460;BME280;64039;53.060;9.342;2023-11-19T08:35:29;100077.06;;;10.56;100.00
75460;BME280;64039;53.060;9.342;2023-11-19T08:37:55;100081.34;;;10.52;100.00
75460;BME280;64039;53.060;9.342;2023-11-19T08:40:21;100085.72;;;10.53;100.00
75460;BME280;64039;53.060;9.342;2023-11-19T08:42:46;100085.75;;;10.60;100.00
75460;BME280;64039;53.060;9.342;2023-11-19T08:45:12;100084.91;;;10.61;100.00
75460;BME280;64039;53.060;9.342;2023-11-19T08:47:38;100080.59;;;10.64;100.00
75460;BME280;64039;53.060;9.342;2023-11-19T08:50:06;100072.84;;;10.69;100.00
75460;BME280;64039;53.060;9.342;2023-11-19T08:52:31;100079.78;;;10.68;100.00
75460;BME280;64039;53.060;9.342;2023-11-19T08:54:57;100088.41;;;10.64;100.00
75460;BME280;64039;53.060;9.342;2023-11-19T08:57:22;100100.47;;;10.56;100.00
75460;BME280;64039;53.060;9.342;2023-11-19T08:59:48;100089.16;;;10.54;100.00
75460;BME280;64039;53.060;9.342;2023-11-19T09:02:14;100092.53;;;10.41;100.00
75460;BME280;64039;53.060;9.342;2023-11-19T09:04:39;100092.63;;;10.48;100.00
75460;BME280;64039;53.060;9.342;2023-11-19T09:07:06;100088.22;;;10.46;100.00
75460;BME280;64039;53.060;9.342;2023-11-19T09:09:31;100104.78;;;10.52;100.00
75460;BME280;64039;53.060;9.342;2023-11-19T09:12:01;100105.69;;;10.54;100.00
75460;BME280;64039;53.060;9.342;2023-11-19T09:14:26;100109.94;;;10.49;100.00
75460;BME280;64039;53.060;9.342;2023-11-19T09:16:52;100111.72;;;10.52;100.00
75460;BME280;64039;53.060;9.342;2023-11-19T09:19:18;100095.16;;;10.45;100.00
75460;BME280;64039;53.060;9.342;2023-11-19T09:21:43;100103.94;;;10.55;100.00
75460;BME280;64039;53.060;9.342;2023-11-19T09:24:09;100106.56;;;10.58;100.00
75460;BME280;64039;53.060;9.342;2023-11-19T09:26:34;100106.66;;;10.67;100.00
75460;BME280;64039;53.060;9.342;2023-11-19T09:29:01;100117.03;;;10.64;100.00
75460;BME280;64039;53.060;9.342;2023-11-19T09:31:27;100116.19;;;10.65;100.00
75460;BME280;64039;53.060;9.342;2023-11-19T09:33:52;100113.66;;;10.73;100.00
75460;BME280;64039;53.060;9.342;2023-11-19T09:36:18;100133.69;;;10.80;100.00
75460;BME280;64039;53.060;9.342;2023-11-19T09:38:44;100101.56;;;10.78;100.00
75460;BME280;64039;53.060;9.342;2023-11-19T09:41:10;100115.53;;;10.93;100.00
75460;BME280;64039;53.060;9.342;2023-11-19T09:43:39;100120.75;;;10.93;100.00
75460;BME280;64039;53.060;9.342;2023-11-19T09:46:06;100112.16;;;11.05;100.00
75460;BME280;64039;53.060;9.342;2023-11-19T09:48:35;100122.63;;;11.06;100.00
75460;BME280;64039;53.060;9.342;2023-11-19T09:51:02;100124.47;;;11.24;100.00
75460;BME280;64039;53.060;9.342;2023-11-19T09:53:30;100109.81;;;11.39;100.00
75460;BME280;64039;53.060;9.342;2023-11-19T09:55:56;100120.22;;;11.39;100.00
75460;BME280;64039;53.060;9.342;2023-11-19T09:58:22;100126.25;;;11.28;100.00
75460;BME280;64039;53.060;9.342;2023-11-19T10:00:49;100134.09;;;11.30;100.00
75460;BME280;64039;53.060;9.342;2023-11-19T10:03:15;100137.41;;;11.10;100.00
75460;BME280;64039;53.060;9.342;2023-11-19T10:05:40;100130.41;;;11.05;100.00
75460;BME280;64039;53.060;9.342;2023-11-19T10:08:06;100127.84;;;11.08;100.00
75460;BME280;64039;53.060;9.342;2023-11-19T10:10:33;100143.47;;;11.09;100.00
75460;BME280;64039;53.060;9.342;2023-11-19T10:13:00;100130.34;;;10.98;100.00
75460;BME280;64039;53.060;9.342;2023-11-19T10:15:26;100140.69;;;10.86;100.00
75460;BME280;64039;53.060;9.342;2023-11-19T10:18:01;100138.03;;;10.83;100.00
75460;BME280;64039;53.060;9.342;2023-11-19T10:20:26;100140.50;;;10.66;100.00
75460;BME280;64039;53.060;9.342;2023-11-19T10:22:55;100140.34;;;10.53;100.00
75460;BME280;64039;53.060;9.342;2023-11-19T10:25:29;100142.94;;;10.52;100.00
75460;BME280;64039;53.060;9.342;2023-11-19T10:27:56;100134.19;;;10.44;100.00
75460;BME280;64039;53.060;9.342;2023-11-19T10:30:28;100133.25;;;10.38;100.00
75460;BME280;64039;53.060;9.342;2023-11-19T10:33:08;100131.41;;;10.33;100.00
75460;BME280;64039;53.060;9.342;2023-11-19T10:35:56;100132.34;;;10.36;100.00
75460;BME280;64039;53.060;9.342;2023-11-19T10:38:23;100140.91;;;10.28;100.00
75460;BME280;64039;53.060;9.342;2023-11-19T10:40:49;100151.50;;;10.40;100.00
75460;BME280;64039;53.060;9.342;2023-11-19T10:43:16;100141.09;;;10.43;100.00
75460;BME280;64039;53.060;9.342;2023-11-19T10:45:44;100137.59;;;10.38;100.00
75460;BME280;64039;53.060;9.342;2023-11-19T10:48:09;100145.41;;;10.40;100.00
75460;BME280;64039;53.060;9.342;2023-11-19T10:50:37;100136.66;;;10.36;100.00
75460;BME280;64039;53.060;9.342;2023-11-19T10:53:04;100145.31;;;10.35;100.00
75460;BME280;64039;53.060;9.342;2023-11-19T10:55:34;100120.03;;;10.21;100.00
75460;BME280;64039;53.060;9.342;2023-11-19T10:58:04;100125.19;;;10.17;100.00
75460;BME280;64039;53.060;9.342;2023-11-19T11:03:08;100132.94;;;10.12;100.00
75460;BME280;64039;53.060;9.342;2023-11-19T11:05:37;100128.63;;;10.17;100.00
75460;BME280;64039;53.060;9.342;2023-11-19T11:08:05;100124.34;;;10.18;100.00
75460;BME280;64039;53.060;9.342;2023-11-19T11:10:36;100136.47;;;10.19;100.00
75460;BME280;64039;53.060;9.342;2023-11-19T11:13:05;100132.97;;;10.17;100.00
75460;BME280;64039;53.060;9.342;2023-11-19T11:15:31;100135.00;;;10.40;100.00
75460;BME280;64039;53.060;9.342;2023-11-19T11:18:00;100130.75;;;10.45;100.00
75460;BME280;64039;53.060;9.342;2023-11-19T11:20:32;100130.00;;;10.58;100.00
75460;BME280;64039;53.060;9.342;2023-11-19T11:23:35;100134.28;;;10.53;100.00
75460;BME280;64039;53.060;9.342;2023-11-19T11:26:35;100134.34;;;10.59;100.00
75460;BME280;64039;53.060;9.342;2023-11-19T11:32:06;100136.06;;;10.59;100.00
75460;BME280;64039;53.060;9.342;2023-11-19T11:37:44;100141.25;;;10.57;100.00
75460;BME280;64039;53.060;9.342;2023-11-19T11:40:17;100143.00;;;10.57;100.00
75460;BME280;64039;53.060;9.342;2023-11-19T11:42:44;100136.06;;;10.59;100.00
75460;BME280;64039;53.060;9.342;2023-11-19T11:45:14;100133.50;;;10.63;100.00
75460;BME280;64039;53.060;9.342;2023-11-19T11:57:57;100120.72;;;10.85;100.00
75460;BME280;64039;53.060;9.342;2023-11-19T12:02:59;100118.03;;;10.77;100.00
75460;BME280;64039;53.060;9.342;2023-11-19T12:05:25;100125.88;;;10.80;100.00
75460;BME280;64039;53.060;9.342;2023-11-19T12:08:05;100122.38;;;10.77;100.00
75460;BME280;64039;53.060;9.342;2023-11-19T12:10:45;100112.81;;;10.77;100.00
75460;BME280;64039;53.060;9.342;2023-11-19T12:13:13;100124.28;;;10.98;100.00
75460;BME280;64039;53.060;9.342;2023-11-19T12:18:26;100125.09;;;10.94;100.00
75460;BME280;64039;53.060;9.342;2023-11-19T12:20:52;100115.47;;;10.82;100.00
75460;BME280;64039;53.060;9.342;2023-11-19T12:23:17;100114.59;;;10.81;100.00
75460;BME280;64039;53.060;9.342;2023-11-19T12:25:43;100119.72;;;10.74;100.00
75460;BME280;64039;53.060;9.342;2023-11-19T12:28:14;100116.34;;;10.85;100.00
75460;BME280;64039;53.060;9.342;2023-11-19T12:30:42;100123.34;;;10.93;100.00
75460;BME280;64039;53.060;9.342;2023-11-19T12:33:09;100113.78;;;10.90;100.00
75460;BME280;64039;53.060;9.342;2023-11-19T12:35:46;100124.97;;;10.78;100.00
75460;BME280;64039;53.060;9.342;2023-11-19T12:38:25;100111.16;;;10.84;100.00
75460;BME280;64039;53.060;9.342;2023-11-19T12:41:07;100110.22;;;10.79;100.00
75460;BME280;64039;53.060;9.342;2023-11-19T12:43:33;100106.75;;;10.80;100.00
75460;BME280;64039;53.060;9.342;2023-11-19T12:46:21;100107.81;;;10.99;100.00
75460;BME280;64039;53.060;9.342;2023-11-19T12:48:48;100098.13;;;10.82;100.00
75460;BME280;64039;53.060;9.342;2023-11-19T12:51:14;100105.81;;;10.70;100.00
75460;BME280;64039;53.060;9.342;2023-11-19T12:53:52;100112.78;;;10.73;100.00
75460;BME280;64039;53.060;9.342;2023-11-19T12:56:24;100109.28;;;10.70;100.00
75460;BME280;64039;53.060;9.342;2023-11-19T12:58:50;100114.47;;;10.70;100.00
75460;BME280;64039;53.060;9.342;2023-11-19T13:01:17;100111.97;;;10.77;100.00
75460;BME280;64039;53.060;9.342;2023-11-19T13:03:43;100105.81;;;10.70;100.00
75460;BME280;64039;53.060;9.342;2023-11-19T13:06:10;100111.00;;;10.68;100.00
75460;BME280;64039;53.060;9.342;2023-11-19T13:08:47;100103.91;;;10.52;100.00
75460;BME280;64039;53.060;9.342;2023-11-19T13:11:34;100087.41;;;10.51;100.00
75460;BME280;64039;53.060;9.342;2023-11-19T13:14:07;100099.56;;;10.52;100.00